createdAt,value
2023-03-31T00:01:24.155Z,17.50
2023-03-31T00:03:52.330Z,17.50
2023-03-31T00:06:20.398Z,17.50
2023-03-31T00:08:51.903Z,17.50
2023-03-31T00:11:20.819Z,17.50
2023-03-31T00:13:50.210Z,17.40
2023-03-31T00:16:18.238Z,17.50
2023-03-31T00:18:47.678Z,17.40
2023-03-31T00:21:24.883Z,17.40
2023-03-31T00:23:54.676Z,17.40
2023-03-31T00:26:23.086Z,17.40
2023-03-31T00:28:53.516Z,17.40
2023-03-31T00:31:22.542Z,17.40
2023-03-31T00:33:50.793Z,17.40
2023-03-31T00:36:21.325Z,17.40
2023-03-31T00:38:51.499Z,17.40
2023-03-31T00:41:19.419Z,17.40
2023-03-31T00:44:08.147Z,17.40
2023-03-31T00:46:39.967Z,17.40
2023-03-31T00:49:18.115Z,17.40
2023-03-31T00:51:46.797Z,17.40
2023-03-31T00:54:15.446Z,17.40
2023-03-31T00:56:48.133Z,17.40
2023-03-31T00:59:17.933Z,17.40
2023-03-31T01:01:50.469Z,17.40
2023-03-31T01:04:22.491Z,17.40
2023-03-31T01:07:00.729Z,17.40
2023-03-31T01:09:35.054Z,17.40
2023-03-31T01:12:06.974Z,17.40
2023-03-31T01:14:37.207Z,17.40
2023-03-31T01:17:09.638Z,17.40
2023-03-31T01:19:49.871Z,17.40
2023-03-31T01:23:08.827Z,17.30
2023-03-31T01:26:13.700Z,17.30
2023-03-31T01:28:44.821Z,17.30
2023-03-31T01:31:43.843Z,17.30
2023-03-31T01:35:01.897Z,17.30
2023-03-31T01:37:57.268Z,17.30
2023-03-31T01:40:51.169Z,17.30
2023-03-31T01:43:24.607Z,17.30
2023-03-31T01:45:58.844Z,17.30
2023-03-31T01:48:43.474Z,17.30
2023-03-31T01:51:16.939Z,17.30
2023-03-31T01:53:52.094Z,17.30
2023-03-31T01:56:26.982Z,17.30
2023-03-31T01:58:58.975Z,17.30
2023-03-31T02:01:31.495Z,17.30
2023-03-31T02:04:03.835Z,17.30
2023-03-31T02:06:39.282Z,17.30
2023-03-31T02:09:12.971Z,17.30
2023-03-31T02:11:44.391Z,17.30
2023-03-31T02:14:18.641Z,17.30
2023-03-31T02:16:50.182Z,17.30
2023-03-31T02:19:23.366Z,17.30
2023-03-31T02:21:51.978Z,17.30
2023-03-31T02:24:22.809Z,17.30
2023-03-31T02:26:57.138Z,17.30
2023-03-31T02:29:25.291Z,17.30
2023-03-31T02:31:57.748Z,17.30
2023-03-31T02:34:25.868Z,17.30
2023-03-31T02:36:53.911Z,17.30
2023-03-31T02:39:26.990Z,17.30
2023-03-31T02:41:56.742Z,17.30
2023-03-31T02:44:25.560Z,17.30
2023-03-31T02:46:54.282Z,17.30
2023-03-31T02:49:23.134Z,17.30
2023-03-31T02:52:22.858Z,17.30
2023-03-31T02:55:20.707Z,17.30
2023-03-31T02:58:12.731Z,17.30
2023-03-31T03:01:08.352Z,17.30
2023-03-31T03:03:45.520Z,17.30
2023-03-31T03:06:30.189Z,17.30
2023-03-31T03:09:09.627Z,17.30
2023-03-31T03:11:45.067Z,17.30
2023-03-31T03:14:24.155Z,17.30
2023-03-31T03:16:59.053Z,17.30
2023-03-31T03:19:27.335Z,17.30
2023-03-31T03:21:55.246Z,17.30
2023-03-31T03:24:23.574Z,17.30
2023-03-31T03:26:51.790Z,17.30
2023-03-31T03:29:21.175Z,17.30
2023-03-31T03:31:49.147Z,17.30
2023-03-31T03:34:18.592Z,17.30
2023-03-31T03:36:47.127Z,17.30
2023-03-31T03:39:15.096Z,17.30
2023-03-31T03:41:43.478Z,17.30
2023-03-31T03:44:11.423Z,17.30
2023-03-31T03:46:40.879Z,17.30
2023-03-31T03:49:08.958Z,17.30
2023-03-31T03:51:36.996Z,17.30
2023-03-31T03:54:05.228Z,17.30
2023-03-31T03:56:33.183Z,17.30
2023-03-31T03:59:01.118Z,17.30
2023-03-31T04:01:29.051Z,17.30
2023-03-31T04:03:58.297Z,17.30
2023-03-31T04:06:27.010Z,17.30
2023-03-31T04:08:54.992Z,17.30
2023-03-31T04:11:23.040Z,17.30
2023-03-31T04:13:50.980Z,17.30
2023-03-31T04:16:18.950Z,17.30
2023-03-31T04:18:48.609Z,17.30
2023-03-31T04:21:22.896Z,17.30
2023-03-31T04:23:58.757Z,17.30
2023-03-31T04:26:38.824Z,17.30
2023-03-31T04:29:07.710Z,17.30
2023-03-31T04:31:38.642Z,17.30
2023-03-31T04:34:13.069Z,17.30
2023-03-31T04:36:47.337Z,17.30
2023-03-31T04:39:17.426Z,17.30
2023-03-31T04:41:45.669Z,17.30
2023-03-31T04:44:13.711Z,17.30
2023-03-31T04:46:41.740Z,17.40
2023-03-31T04:49:09.652Z,17.40
2023-03-31T04:51:37.635Z,17.40
2023-03-31T04:54:07.081Z,17.40
2023-03-31T04:56:35.246Z,17.40
2023-03-31T04:59:03.875Z,17.40
2023-03-31T05:01:33.608Z,17.40
2023-03-31T05:04:01.623Z,17.40
2023-03-31T05:06:29.625Z,17.40
2023-03-31T05:08:57.573Z,17.50
2023-03-31T05:11:27.434Z,17.50
2023-03-31T05:13:55.450Z,17.50
2023-03-31T05:16:23.459Z,17.50
2023-03-31T05:18:51.448Z,17.50
2023-03-31T05:21:21.583Z,17.50
2023-03-31T05:23:50.999Z,17.50
2023-03-31T05:26:19.086Z,17.50
2023-03-31T05:28:48.359Z,17.50
2023-03-31T05:31:16.324Z,17.50
2023-03-31T05:33:44.432Z,17.60
2023-03-31T05:36:13.957Z,17.50
2023-03-31T05:38:42.420Z,17.60
2023-03-31T05:41:11.949Z,17.60
2023-03-31T05:43:40.353Z,17.60
2023-03-31T05:46:09.928Z,17.60
2023-03-31T05:48:38.291Z,17.60
2023-03-31T05:51:06.738Z,17.60
2023-03-31T05:53:35.169Z,17.60
2023-03-31T05:56:05.367Z,17.60
2023-03-31T05:58:35.219Z,17.60
2023-03-31T06:01:07.141Z,17.60
2023-03-31T06:03:38.191Z,17.60
2023-03-31T06:06:08.072Z,17.60
2023-03-31T06:08:36.330Z,17.60
2023-03-31T06:11:06.537Z,17.60
2023-03-31T06:13:35.009Z,17.60
2023-03-31T06:16:03.406Z,17.60
2023-03-31T06:18:33.676Z,17.60
2023-03-31T06:21:03.617Z,17.60
2023-03-31T06:23:31.615Z,17.70
2023-03-31T06:26:02.313Z,17.60
2023-03-31T06:28:31.144Z,17.70
2023-03-31T06:31:03.646Z,17.70
2023-03-31T06:33:32.241Z,17.70
2023-03-31T06:36:04.305Z,17.70
2023-03-31T06:38:32.820Z,17.70
2023-03-31T06:41:00.853Z,17.70
2023-03-31T06:43:28.796Z,17.70
2023-03-31T06:45:57.382Z,17.70
2023-03-31T06:48:26.095Z,17.70
2023-03-31T06:50:56.577Z,17.70
2023-03-31T06:53:26.049Z,17.70
2023-03-31T06:55:53.976Z,17.70
2023-03-31T06:58:22.458Z,17.70
2023-03-31T07:00:50.787Z,17.70
2023-03-31T07:03:22.393Z,17.70
2023-03-31T07:05:51.640Z,17.70
2023-03-31T07:08:20.079Z,17.70
2023-03-31T07:10:50.268Z,17.70
2023-03-31T07:13:18.967Z,17.80
2023-03-31T07:15:49.610Z,17.70
2023-03-31T07:18:19.152Z,17.70
2023-03-31T07:20:49.360Z,17.80
2023-03-31T07:23:17.460Z,17.80
2023-03-31T07:25:45.596Z,17.70
2023-03-31T07:28:14.890Z,17.80
2023-03-31T07:30:43.092Z,17.80
2023-03-31T07:33:11.592Z,17.80
2023-03-31T07:35:40.186Z,17.80
2023-03-31T07:38:09.756Z,17.80
2023-03-31T07:40:38.097Z,17.80
2023-03-31T07:43:06.200Z,17.80
2023-03-31T07:45:36.614Z,17.80
2023-03-31T07:48:04.786Z,17.80
2023-03-31T07:50:32.808Z,17.80
2023-03-31T07:53:00.732Z,17.80
2023-03-31T07:55:28.681Z,17.80
2023-03-31T07:57:56.645Z,17.80
2023-03-31T08:00:25.220Z,17.80
2023-03-31T08:02:54.616Z,17.80
2023-03-31T08:05:22.618Z,17.80
2023-03-31T08:07:51.860Z,17.80
2023-03-31T08:10:22.493Z,17.80
2023-03-31T08:12:50.524Z,17.80
2023-03-31T08:15:18.972Z,17.80
2023-03-31T08:17:47.150Z,17.80
2023-03-31T08:20:16.577Z,17.80
2023-03-31T08:22:44.751Z,17.80
2023-03-31T08:25:12.716Z,17.80
2023-03-31T08:27:41.791Z,17.80
2023-03-31T08:30:12.271Z,17.80
2023-03-31T08:32:40.303Z,17.80
2023-03-31T08:35:09.666Z,17.80
2023-03-31T08:37:39.846Z,17.80
2023-03-31T08:40:10.723Z,17.80
2023-03-31T08:42:42.809Z,17.80
2023-03-31T08:45:17.992Z,17.80
2023-03-31T08:47:48.178Z,17.80
2023-03-31T08:50:19.782Z,17.80
2023-03-31T08:52:53.954Z,17.80
2023-03-31T08:55:29.089Z,17.80
2023-03-31T08:58:02.558Z,17.80
2023-03-31T09:00:36.959Z,17.80
2023-03-31T09:03:11.955Z,17.80
2023-03-31T09:05:59.292Z,17.80
2023-03-31T09:08:40.020Z,17.80
2023-03-31T09:11:13.058Z,17.80
2023-03-31T09:13:59.070Z,17.80
2023-03-31T09:16:32.109Z,17.80
2023-03-31T09:19:02.424Z,17.80
2023-03-31T09:21:33.551Z,17.80
2023-03-31T09:24:08.066Z,17.80
2023-03-31T09:26:40.181Z,17.70
2023-03-31T09:29:15.499Z,17.70
2023-03-31T09:31:45.461Z,17.70
2023-03-31T09:34:16.283Z,17.70
2023-03-31T09:36:44.788Z,17.70
2023-03-31T09:39:16.057Z,17.70
2023-03-31T09:41:46.558Z,17.70
2023-03-31T09:44:25.345Z,17.70
2023-03-31T09:46:54.474Z,17.70
2023-03-31T09:49:24.687Z,17.70
2023-03-31T09:52:03.051Z,17.70
2023-03-31T09:54:37.518Z,17.70
2023-03-31T09:57:15.505Z,17.70
2023-03-31T09:59:45.821Z,17.70
2023-03-31T10:02:37.643Z,17.70
2023-03-31T10:05:06.808Z,17.60
2023-03-31T10:07:35.911Z,17.70
2023-03-31T10:10:18.639Z,17.60
2023-03-31T10:12:53.678Z,17.60
2023-03-31T10:15:23.689Z,17.60
2023-03-31T10:17:55.456Z,17.60
2023-03-31T10:20:34.114Z,17.60
2023-03-31T10:23:15.717Z,17.60
2023-03-31T10:25:47.162Z,17.60
2023-03-31T10:28:18.663Z,17.60
2023-03-31T10:30:50.285Z,17.60
2023-03-31T10:33:23.045Z,17.60
2023-03-31T10:35:55.700Z,17.60
2023-03-31T10:38:28.720Z,17.60
2023-03-31T10:40:59.969Z,17.60
2023-03-31T10:43:29.800Z,17.60
2023-03-31T10:46:00.038Z,17.60
2023-03-31T10:48:29.796Z,17.60
2023-03-31T10:51:01.758Z,17.60
2023-03-31T10:53:29.794Z,17.60
2023-03-31T10:56:13.819Z,17.60
2023-03-31T10:59:05.400Z,17.60
2023-03-31T11:01:48.772Z,17.60
2023-03-31T11:04:44.184Z,17.60
2023-03-31T11:07:22.876Z,17.60
2023-03-31T11:10:00.791Z,17.60
2023-03-31T11:12:35.324Z,17.60
2023-03-31T11:15:15.696Z,17.60
2023-03-31T11:17:57.546Z,17.60
2023-03-31T11:20:34.271Z,17.60
2023-03-31T11:23:15.800Z,17.60
2023-03-31T11:25:51.352Z,17.60
2023-03-31T11:28:34.307Z,17.60
2023-03-31T11:31:13.504Z,17.60
2023-03-31T11:34:07.746Z,17.60
2023-03-31T11:36:51.785Z,17.60
2023-03-31T11:39:33.851Z,17.60
2023-03-31T11:42:06.500Z,17.60
2023-03-31T11:44:56.466Z,17.60
2023-03-31T11:47:28.903Z,17.50
2023-03-31T11:50:00.111Z,17.60
2023-03-31T11:52:31.336Z,17.60
2023-03-31T11:55:03.333Z,17.60
2023-03-31T11:57:34.735Z,17.60
2023-03-31T12:00:14.267Z,17.60
2023-03-31T12:02:47.620Z,17.60
2023-03-31T12:05:17.845Z,17.60
2023-03-31T12:07:49.316Z,17.60
2023-03-31T12:10:23.649Z,17.60
2023-03-31T12:12:56.663Z,17.60
2023-03-31T12:15:31.324Z,17.60
2023-03-31T12:18:04.314Z,17.50
2023-03-31T12:20:37.846Z,17.60
2023-03-31T12:23:12.384Z,17.60
2023-03-31T12:25:48.962Z,17.60
2023-03-31T12:28:18.887Z,17.60
2023-03-31T12:30:49.170Z,17.60
2023-03-31T12:33:21.284Z,17.60
2023-03-31T12:36:15.678Z,17.50
2023-03-31T12:38:58.912Z,17.60
2023-03-31T12:41:36.836Z,17.60
2023-03-31T12:44:25.582Z,17.60
2023-03-31T12:47:21.487Z,17.60
2023-03-31T12:50:17.175Z,17.60
2023-03-31T12:52:56.210Z,17.60
2023-03-31T12:55:40.468Z,17.50
2023-03-31T12:58:37.464Z,17.60
2023-03-31T13:01:10.643Z,17.60
2023-03-31T13:03:50.069Z,17.60
2023-03-31T13:07:01.151Z,17.60
2023-03-31T13:09:47.179Z,17.60
2023-03-31T13:12:18.082Z,17.50
2023-03-31T13:14:48.245Z,17.60
2023-03-31T13:17:27.123Z,17.50
2023-03-31T13:19:58.496Z,17.50
2023-03-31T13:22:32.788Z,17.50
2023-03-31T13:25:40.573Z,17.60
2023-03-31T13:28:25.706Z,17.60
2023-03-31T13:31:01.877Z,17.50
2023-03-31T13:33:41.084Z,17.50
2023-03-31T13:36:50.987Z,17.60
2023-03-31T13:39:43.499Z,17.50
2023-03-31T13:42:46.369Z,17.50
2023-03-31T13:45:35.337Z,17.50
2023-03-31T13:48:19.994Z,17.50
2023-03-31T13:51:01.491Z,17.50
2023-03-31T13:54:01.756Z,17.50
2023-03-31T13:56:49.677Z,17.50
2023-03-31T13:59:32.069Z,17.50
2023-03-31T14:02:22.998Z,17.50
2023-03-31T14:05:10.006Z,17.50
2023-03-31T14:07:44.971Z,17.50
2023-03-31T14:10:27.321Z,17.60
2023-03-31T14:13:06.927Z,17.50
2023-03-31T14:15:37.318Z,17.50
2023-03-31T14:18:07.075Z,17.50
2023-03-31T14:20:54.762Z,17.50
2023-03-31T14:23:33.896Z,17.50
2023-03-31T14:26:08.094Z,17.50
2023-03-31T14:29:11.326Z,17.50
2023-03-31T14:31:45.579Z,17.50
2023-03-31T14:34:32.299Z,17.50
2023-03-31T14:37:03.257Z,17.50
2023-03-31T14:39:33.308Z,17.50
2023-03-31T14:42:06.488Z,17.50
2023-03-31T14:44:35.001Z,17.50
2023-03-31T14:47:03.089Z,17.50
2023-03-31T14:49:36.685Z,17.50
2023-03-31T14:52:15.094Z,17.60
2023-03-31T14:54:47.435Z,17.60
2023-03-31T14:57:20.670Z,17.60
2023-03-31T14:59:51.979Z,17.50
2023-03-31T15:02:29.727Z,17.50
2023-03-31T15:04:58.291Z,17.60
2023-03-31T15:07:27.958Z,17.50
2023-03-31T15:09:56.159Z,17.60
2023-03-31T15:12:26.002Z,17.60
2023-03-31T15:15:05.397Z,17.60
2023-03-31T15:17:39.206Z,17.60
2023-03-31T15:20:31.062Z,17.60
2023-03-31T15:23:00.285Z,17.60
2023-03-31T15:25:33.987Z,17.60
2023-03-31T15:28:06.812Z,17.60
2023-03-31T15:30:36.337Z,17.60
2023-03-31T15:33:19.071Z,17.60
2023-03-31T15:35:48.080Z,17.60
2023-03-31T15:38:18.424Z,17.60
2023-03-31T15:40:56.690Z,17.50
2023-03-31T15:43:31.529Z,17.60
2023-03-31T15:46:00.463Z,17.50
2023-03-31T15:48:33.301Z,17.60
2023-03-31T15:51:02.492Z,17.60
2023-03-31T15:53:36.100Z,17.60
2023-03-31T15:56:05.174Z,17.60
2023-03-31T15:58:56.844Z,17.60
2023-03-31T16:01:30.402Z,17.60
2023-03-31T16:03:58.613Z,17.60
2023-03-31T16:06:36.082Z,17.60
2023-03-31T16:09:08.053Z,17.60
2023-03-31T16:11:41.627Z,17.60
2023-03-31T16:14:16.282Z,17.60
2023-03-31T16:16:49.809Z,17.60
2023-03-31T16:19:19.068Z,17.60
2023-03-31T16:21:52.602Z,17.60
2023-03-31T16:24:22.079Z,17.60
2023-03-31T16:26:50.422Z,17.60
2023-03-31T16:29:23.575Z,17.60
2023-03-31T16:32:06.485Z,17.60
2023-03-31T16:34:34.415Z,17.60
2023-03-31T16:37:08.230Z,17.60
2023-03-31T16:39:36.194Z,17.60
2023-03-31T16:42:04.363Z,17.60
2023-03-31T16:44:33.652Z,17.60
2023-03-31T16:47:01.655Z,17.60
2023-03-31T16:49:29.759Z,17.70
2023-03-31T16:51:57.856Z,17.70
2023-03-31T16:54:25.952Z,17.70
2023-03-31T16:56:53.932Z,17.70
2023-03-31T16:59:21.954Z,17.70
2023-03-31T17:01:52.208Z,17.70
2023-03-31T17:04:20.849Z,17.70
2023-03-31T17:06:48.915Z,17.70
2023-03-31T17:09:16.861Z,17.70
2023-03-31T17:11:45.006Z,17.70
2023-03-31T17:14:12.929Z,17.70
2023-03-31T17:19:30.550Z,17.70
2023-03-31T17:22:01.776Z,17.70
2023-03-31T17:24:29.700Z,17.70
2023-03-31T17:26:57.704Z,17.80
2023-03-31T17:29:25.688Z,17.80
2023-03-31T17:31:53.732Z,17.80
2023-03-31T17:34:21.695Z,17.80
2023-03-31T17:36:51.634Z,17.80
2023-03-31T17:39:19.550Z,17.80
2023-03-31T17:41:47.467Z,17.80
2023-03-31T17:44:15.496Z,17.80
2023-03-31T17:46:44.075Z,17.80
2023-03-31T17:49:12.516Z,17.80
2023-03-31T17:51:40.574Z,17.80
2023-03-31T17:54:09.894Z,17.80
2023-03-31T17:56:38.799Z,17.80
2023-03-31T17:59:06.733Z,17.80
2023-03-31T18:01:34.742Z,17.80
2023-03-31T18:04:02.904Z,17.80
2023-03-31T18:06:30.958Z,17.80
2023-03-31T18:08:58.887Z,17.80
2023-03-31T18:11:28.351Z,17.80
2023-03-31T18:13:56.579Z,17.80
2023-03-31T18:16:24.669Z,17.80
2023-03-31T18:18:52.608Z,17.80
2023-03-31T18:21:20.896Z,17.80
2023-03-31T18:23:52.478Z,17.80
2023-03-31T18:26:22.475Z,17.80
2023-03-31T18:28:51.741Z,17.80
2023-03-31T18:31:21.368Z,17.80
2023-03-31T18:33:52.179Z,17.90
2023-03-31T18:36:22.140Z,17.90
2023-03-31T18:38:51.461Z,17.90
2023-03-31T18:41:20.059Z,17.90
2023-03-31T18:43:50.613Z,17.90
2023-03-31T18:46:20.067Z,17.90
2023-03-31T18:48:48.633Z,17.90
2023-03-31T18:51:16.916Z,17.90
2023-03-31T18:53:44.971Z,17.90
2023-03-31T18:56:13.208Z,17.90
2023-03-31T18:58:41.155Z,17.90
2023-03-31T19:01:09.469Z,17.90
2023-03-31T19:03:39.004Z,17.90
2023-03-31T19:06:10.171Z,17.90
2023-03-31T19:08:38.410Z,17.90
2023-03-31T19:11:08.378Z,17.90
2023-03-31T19:13:36.434Z,17.90
2023-03-31T19:16:04.635Z,17.90
2023-03-31T19:18:32.868Z,17.90
2023-03-31T19:21:04.161Z,17.90
2023-03-31T19:23:34.094Z,17.90
2023-03-31T19:26:02.908Z,17.90
2023-03-31T19:28:31.586Z,17.90
2023-03-31T19:30:59.940Z,17.90
2023-03-31T19:33:28.265Z,17.90
2023-03-31T19:35:56.559Z,17.90
2023-03-31T19:38:27.134Z,17.90
2023-03-31T19:40:55.173Z,17.90
2023-03-31T19:43:25.405Z,17.90
2023-03-31T19:45:55.729Z,17.90
2023-03-31T19:48:25.539Z,17.90
2023-03-31T19:50:54.896Z,17.90
2023-03-31T19:53:24.991Z,17.90
2023-03-31T19:55:57.203Z,17.90
2023-03-31T19:58:26.181Z,17.90
2023-03-31T20:00:54.857Z,18.00
2023-03-31T20:03:24.094Z,18.00
2023-03-31T20:05:53.968Z,18.00
2023-03-31T20:08:21.942Z,18.00
2023-03-31T20:10:51.579Z,18.00
2023-03-31T20:13:19.527Z,18.00
2023-03-31T20:15:47.989Z,18.00
2023-03-31T20:18:15.951Z,18.00
2023-03-31T20:20:45.604Z,18.00
2023-03-31T20:23:14.253Z,18.00
2023-03-31T20:25:42.182Z,18.00
2023-03-31T20:28:11.434Z,18.00
2023-03-31T20:30:39.482Z,18.00
2023-03-31T20:33:07.498Z,18.00
2023-03-31T20:35:35.476Z,18.00
2023-03-31T20:38:03.495Z,18.00
2023-03-31T20:40:31.736Z,18.00
2023-03-31T20:42:59.918Z,18.00
2023-03-31T20:45:29.301Z,18.00
2023-03-31T20:47:57.449Z,18.00
2023-03-31T20:50:25.388Z,18.00
2023-03-31T20:52:53.315Z,18.00
2023-03-31T20:55:21.700Z,18.00
2023-03-31T20:57:49.624Z,18.00
2023-03-31T21:00:18.332Z,18.00
2023-03-31T21:02:47.819Z,18.00
2023-03-31T21:05:17.802Z,18.00
2023-03-31T21:07:45.768Z,18.00
2023-03-31T21:10:13.669Z,18.00
2023-03-31T21:12:46.083Z,18.00
2023-03-31T21:15:14.352Z,18.00
2023-03-31T21:17:42.318Z,18.00
2023-03-31T21:20:12.583Z,18.00
2023-03-31T21:22:40.516Z,18.00
2023-03-31T21:25:09.397Z,18.00
2023-03-31T21:27:37.292Z,18.00
2023-03-31T21:30:05.918Z,18.00
2023-03-31T21:32:33.938Z,18.00
2023-03-31T21:35:01.957Z,18.00
2023-03-31T21:37:31.280Z,18.00
2023-03-31T21:39:59.207Z,18.00
2023-03-31T21:42:27.688Z,18.00
2023-03-31T21:44:58.883Z,18.00
2023-03-31T21:47:27.223Z,18.00
2023-03-31T21:49:55.818Z,18.00
2023-03-31T21:52:24.539Z,18.00
2023-03-31T21:54:53.910Z,18.00
2023-03-31T21:57:22.160Z,18.00
2023-03-31T21:59:50.238Z,18.00
2023-03-31T22:02:18.211Z,18.00
2023-03-31T22:04:46.450Z,18.00
2023-03-31T22:07:14.598Z,18.00
2023-03-31T22:09:42.549Z,18.00
2023-03-31T22:12:11.833Z,18.00
2023-03-31T22:14:39.825Z,18.00
2023-03-31T22:17:08.305Z,17.90
2023-03-31T22:19:37.377Z,17.90
2023-03-31T22:22:05.380Z,17.90
2023-03-31T22:24:33.331Z,17.90
2023-03-31T22:27:01.364Z,17.90
2023-03-31T22:29:31.985Z,17.90
2023-03-31T22:31:59.986Z,17.90
2023-03-31T22:34:28.023Z,17.90
2023-03-31T22:36:55.941Z,17.90
2023-03-31T22:39:25.359Z,17.90
2023-03-31T22:41:53.439Z,17.90
2023-03-31T22:44:21.688Z,17.90
2023-03-31T22:46:51.540Z,17.80
2023-03-31T22:49:19.488Z,17.80
2023-03-31T22:51:47.567Z,17.80
2023-03-31T22:54:17.468Z,17.80
2023-03-31T22:56:45.416Z,17.80
2023-03-31T22:59:13.333Z,17.80
2023-03-31T23:01:41.356Z,17.80
2023-03-31T23:04:10.679Z,17.80
2023-03-31T23:06:38.837Z,17.80
2023-03-31T23:09:06.739Z,17.80
2023-03-31T23:11:34.686Z,17.80
2023-03-31T23:14:03.568Z,17.80
2023-03-31T23:16:32.592Z,17.80
2023-03-31T23:21:30.880Z,17.70
2023-03-31T23:24:01.058Z,17.70
2023-03-31T23:26:30.365Z,17.70
2023-03-31T23:29:00.472Z,17.70
2023-03-31T23:31:30.237Z,17.70
2023-03-31T23:33:58.831Z,17.70
2023-03-31T23:36:27.239Z,17.70
2023-03-31T23:38:57.226Z,17.70
2023-03-31T23:41:26.316Z,17.70
2023-03-31T23:43:55.865Z,17.70
2023-03-31T23:46:24.342Z,17.70
2023-03-31T23:48:52.580Z,17.70
2023-03-31T23:51:20.586Z,17.70
2023-03-31T23:53:48.572Z,17.70
2023-03-31T23:56:17.908Z,17.70
2023-03-31T23:58:45.866Z,17.70
